sensor_id;sensor_type;location;lat;lon;timestamp;pressure;altitude;pressure_sealevel;temperature;humidity
39729;BME280;25402;42.004;23.088;2024-01-15T00:00:21;97112.19;;;-6.32;45.82
39729;BME280;25402;42.004;23.088;2024-01-15T00:02:49;97116.13;;;-6.40;45.91
39729;BME280;25402;42.004;23.088;2024-01-15T00:05:16;97126.13;;;-6.30;45.44
39729;BME280;25402;42.004;23.088;2024-01-15T00:07:43;97125.91;;;-6.27;45.56
39729;BME280;25402;42.004;23.088;2024-01-15T00:10:10;97125.16;;;-6.29;45.01
39729;BME280;25402;42.004;23.088;2024-01-15T00:12:37;97115.09;;;-6.37;45.33
39729;BME280;25402;42.004;23.088;2024-01-15T00:15:09;97115.75;;;-6.33;45.23
39729;BME280;25402;42.004;23.088;2024-01-15T00:17:36;97116.19;;;-6.41;45.21
39729;BME280;25402;42.004;23.088;2024-01-15T00:20:06;97115.28;;;-6.40;45.32
39729;BME280;25402;42.004;23.088;2024-01-15T00:22:34;97120.34;;;-6.37;45.27
39729;BME280;25402;42.004;23.088;2024-01-15T00:25:02;97123.00;;;-6.37;45.47
39729;BME280;25402;42.004;23.088;2024-01-15T00:27:29;97116.97;;;-6.39;45.62
39729;BME280;25402;42.004;23.088;2024-01-15T00:29:56;97124.00;;;-6.40;45.01
39729;BME280;25402;42.004;23.088;2024-01-15T00:32:23;97118.16;;;-6.45;45.84
39729;BME280;25402;42.004;23.088;2024-01-15T00:34:50;97119.00;;;-6.44;45.30
39729;BME280;25402;42.004;23.088;2024-01-15T00:37:19;97127.03;;;-6.46;45.48
39729;BME280;25402;42.004;23.088;2024-01-15T00:39:46;97128.56;;;-6.57;45.89
39729;BME280;25402;42.004;23.088;2024-01-15T00:42:13;97121.63;;;-6.58;46.22
39729;BME280;25402;42.004;23.088;2024-01-15T00:44:40;97114.41;;;-6.55;46.24
39729;BME280;25402;42.004;23.088;2024-01-15T00:47:07;97107.34;;;-6.54;46.10
39729;BME280;25402;42.004;23.088;2024-01-15T00:49:34;97101.31;;;-6.56;46.36
39729;BME280;25402;42.004;23.088;2024-01-15T00:52:01;97109.72;;;-6.50;46.02
39729;BME280;25402;42.004;23.088;2024-01-15T00:54:29;97102.09;;;-6.54;46.16
39729;BME280;25402;42.004;23.088;2024-01-15T00:56:56;97093.69;;;-6.61;45.71
39729;BME280;25402;42.004;23.088;2024-01-15T00:59:23;97092.66;;;-6.58;46.20
39729;BME280;25402;42.004;23.088;2024-01-15T01:01:50;97091.28;;;-6.64;46.36
39729;BME280;25402;42.004;23.088;2024-01-15T01:04:17;97095.13;;;-6.55;45.98
39729;BME280;25402;42.004;23.088;2024-01-15T01:06:44;97092.59;;;-6.57;46.28
39729;BME280;25402;42.004;23.088;2024-01-15T01:09:11;97095.03;;;-6.54;46.33
39729;BME280;25402;42.004;23.088;2024-01-15T01:11:40;97099.75;;;-6.45;46.27
39729;BME280;25402;42.004;23.088;2024-01-15T01:14:07;97105.97;;;-6.46;46.15
39729;BME280;25402;42.004;23.088;2024-01-15T01:16:34;97099.84;;;-6.46;45.97
39729;BME280;25402;42.004;23.088;2024-01-15T01:19:04;97103.13;;;-6.43;46.17
39729;BME280;25402;42.004;23.088;2024-01-15T01:21:32;97078.66;;;-6.59;46.26
39729;BME280;25402;42.004;23.088;2024-01-15T01:23:59;97084.91;;;-6.46;46.20
39729;BME280;25402;42.004;23.088;2024-01-15T01:26:26;97092.69;;;-6.44;46.07
39729;BME280;25402;42.004;23.088;2024-01-15T01:28:55;97085.72;;;-6.45;46.28
39729;BME280;25402;42.004;23.088;2024-01-15T01:31:23;97086.59;;;-6.45;46.51
39729;BME280;25402;42.004;23.088;2024-01-15T01:33:50;97078.97;;;-6.49;46.31
39729;BME280;25402;42.004;23.088;2024-01-15T01:36:17;97088.19;;;-6.42;46.46
39729;BME280;25402;42.004;23.088;2024-01-15T01:38:44;97094.38;;;-6.43;46.46
39729;BME280;25402;42.004;23.088;2024-01-15T01:41:11;97091.00;;;-6.45;46.68
39729;BME280;25402;42.004;23.088;2024-01-15T01:43:38;97086.97;;;-6.51;46.53
39729;BME280;25402;42.004;23.088;2024-01-15T01:46:07;97089.88;;;-6.55;46.89
39729;BME280;25402;42.004;23.088;2024-01-15T01:48:34;97091.28;;;-6.50;46.79
39729;BME280;25402;42.004;23.088;2024-01-15T01:51:03;97085.56;;;-6.42;46.58
39729;BME280;25402;42.004;23.088;2024-01-15T01:53:32;97075.22;;;-6.45;46.26
39729;BME280;25402;42.004;23.088;2024-01-15T01:56:00;97077.38;;;-6.52;46.30
39729;BME280;25402;42.004;23.088;2024-01-15T01:58:28;97077.19;;;-6.63;46.46
39729;BME280;25402;42.004;23.088;2024-01-15T02:00:56;97069.00;;;-6.58;46.10
39729;BME280;25402;42.004;23.088;2024-01-15T02:03:26;97074.16;;;-6.57;46.81
39729;BME280;25402;42.004;23.088;2024-01-15T02:05:53;97064.88;;;-6.62;47.06
39729;BME280;25402;42.004;23.088;2024-01-15T02:08:21;97066.28;;;-6.57;47.15
39729;BME280;25402;42.004;23.088;2024-01-15T02:10:48;97057.25;;;-6.53;45.98
39729;BME280;25402;42.004;23.088;2024-01-15T02:13:15;97059.13;;;-6.55;46.50
39729;BME280;25402;42.004;23.088;2024-01-15T02:15:42;97032.53;;;-6.64;45.92
39729;BME280;25402;42.004;23.088;2024-01-15T02:18:09;97041.38;;;-6.51;45.84
39729;BME280;25402;42.004;23.088;2024-01-15T02:20:38;97034.69;;;-6.57;45.82
39729;BME280;25402;42.004;23.088;2024-01-15T02:23:11;97036.94;;;-6.65;45.85
39729;BME280;25402;42.004;23.088;2024-01-15T02:25:39;97028.31;;;-6.53;45.53
39729;BME280;25402;42.004;23.088;2024-01-15T02:28:08;97018.81;;;-6.69;45.73
39729;BME280;25402;42.004;23.088;2024-01-15T02:30:37;97023.22;;;-6.70;45.48
39729;BME280;25402;42.004;23.088;2024-01-15T02:33:05;97017.03;;;-6.69;45.62
39729;BME280;25402;42.004;23.088;2024-01-15T02:35:33;97012.50;;;-6.67;45.87
39729;BME280;25402;42.004;23.088;2024-01-15T02:38:02;96987.66;;;-6.91;46.06
39729;BME280;25402;42.004;23.088;2024-01-15T02:40:31;97018.03;;;-6.71;45.75
39729;BME280;25402;42.004;23.088;2024-01-15T02:42:58;97007.78;;;-6.76;45.53
39729;BME280;25402;42.004;23.088;2024-01-15T02:45:25;96999.34;;;-6.81;45.62
39729;BME280;25402;42.004;23.088;2024-01-15T02:47:53;96988.25;;;-6.86;46.32
39729;BME280;25402;42.004;23.088;2024-01-15T02:50:20;96985.63;;;-6.86;45.83
39729;BME280;25402;42.004;23.088;2024-01-15T02:52:47;96985.88;;;-6.91;45.32
39729;BME280;25402;42.004;23.088;2024-01-15T02:55:14;96977.16;;;-6.91;45.67
39729;BME280;25402;42.004;23.088;2024-01-15T02:57:43;96983.56;;;-6.81;45.43
39729;BME280;25402;42.004;23.088;2024-01-15T03:00:11;96971.25;;;-6.81;45.36
39729;BME280;25402;42.004;23.088;2024-01-15T03:02:39;96976.13;;;-6.89;45.41
39729;BME280;25402;42.004;23.088;2024-01-15T03:05:06;96969.56;;;-6.96;45.15
39729;BME280;25402;42.004;23.088;2024-01-15T03:07:34;96977.44;;;-6.96;45.51
39729;BME280;25402;42.004;23.088;2024-01-15T03:10:01;96964.66;;;-7.02;45.73
39729;BME280;25402;42.004;23.088;2024-01-15T03:12:28;96963.81;;;-7.02;45.31
39729;BME280;25402;42.004;23.088;2024-01-15T03:14:57;96966.44;;;-7.02;45.59
39729;BME280;25402;42.004;23.088;2024-01-15T03:17:24;96954.31;;;-7.05;45.44
39729;BME280;25402;42.004;23.088;2024-01-15T03:19:51;96945.56;;;-7.20;45.74
39729;BME280;25402;42.004;23.088;2024-01-15T03:22:18;96932.78;;;-7.26;45.97
39729;BME280;25402;42.004;23.088;2024-01-15T03:24:45;96934.91;;;-7.32;46.80
39729;BME280;25402;42.004;23.088;2024-01-15T03:27:12;96927.88;;;-7.32;46.65
39729;BME280;25402;42.004;23.088;2024-01-15T03:29:41;96934.56;;;-7.26;47.41
39729;BME280;25402;42.004;23.088;2024-01-15T03:32:09;96934.84;;;-7.17;47.70
39729;BME280;25402;42.004;23.088;2024-01-15T03:34:36;96882.72;;;-7.38;47.67
39729;BME280;25402;42.004;23.088;2024-01-15T03:37:03;96951.97;;;-7.10;48.09
39729;BME280;25402;42.004;23.088;2024-01-15T03:39:31;96944.28;;;-6.98;47.58
39729;BME280;25402;42.004;23.088;2024-01-15T03:41:58;96947.75;;;-6.98;47.28
39729;BME280;25402;42.004;23.088;2024-01-15T03:44:25;96953.00;;;-6.98;47.14
39729;BME280;25402;42.004;23.088;2024-01-15T03:46:52;96957.03;;;-6.92;47.65
39729;BME280;25402;42.004;23.088;2024-01-15T03:49:20;96962.13;;;-6.89;47.38
39729;BME280;25402;42.004;23.088;2024-01-15T03:51:47;96961.16;;;-7.02;46.89
39729;BME280;25402;42.004;23.088;2024-01-15T03:54:14;96959.66;;;-6.92;47.20
39729;BME280;25402;42.004;23.088;2024-01-15T03:56:41;96951.59;;;-6.89;46.50
39729;BME280;25402;42.004;23.088;2024-01-15T03:59:08;96951.38;;;-7.15;46.42
39729;BME280;25402;42.004;23.088;2024-01-15T04:01:35;96956.28;;;-7.08;46.60
39729;BME280;25402;42.004;23.088;2024-01-15T04:04:03;96960.22;;;-7.01;47.43
39729;BME280;25402;42.004;23.088;2024-01-15T04:06:31;96966.44;;;-7.02;46.82
39729;BME280;25402;42.004;23.088;2024-01-15T04:08:59;96961.09;;;-7.01;46.35
39729;BME280;25402;42.004;23.088;2024-01-15T04:11:26;96964.66;;;-7.02;45.85
39729;BME280;25402;42.004;23.088;2024-01-15T04:13:53;96936.06;;;-7.22;46.17
39729;BME280;25402;42.004;23.088;2024-01-15T04:16:20;96965.13;;;-7.10;46.19
39729;BME280;25402;42.004;23.088;2024-01-15T04:18:47;96963.34;;;-7.09;46.51
39729;BME280;25402;42.004;23.088;2024-01-15T04:21:14;96964.06;;;-7.07;46.00
39729;BME280;25402;42.004;23.088;2024-01-15T04:23:42;96965.69;;;-5.78;66.66
39729;BME280;25402;42.004;23.088;2024-01-15T04:26:09;96960.28;;;-3.25;65.61
39729;BME280;25402;42.004;23.088;2024-01-15T04:28:36;96960.28;;;-1.44;56.65
39729;BME280;25402;42.004;23.088;2024-01-15T04:31:03;96961.19;;;-0.40;51.46
39729;BME280;25402;42.004;23.088;2024-01-15T04:33:30;96960.56;;;0.38;47.16
39729;BME280;25402;42.004;23.088;2024-01-15T04:36:01;96958.25;;;1.03;43.54
39729;BME280;25402;42.004;23.088;2024-01-15T04:38:28;96964.94;;;1.55;40.73
39729;BME280;25402;42.004;23.088;2024-01-15T04:40:57;96963.72;;;1.96;39.01
39729;BME280;25402;42.004;23.088;2024-01-15T04:43:24;96948.38;;;2.35;37.66
39729;BME280;25402;42.004;23.088;2024-01-15T04:45:51;96944.91;;;2.70;35.79
39729;BME280;25402;42.004;23.088;2024-01-15T04:48:18;96934.03;;;2.99;34.97
39729;BME280;25402;42.004;23.088;2024-01-15T04:50:45;96938.19;;;3.19;34.08
39729;BME280;25402;42.004;23.088;2024-01-15T04:53:13;96933.41;;;3.40;34.35
39729;BME280;25402;42.004;23.088;2024-01-15T04:55:40;96925.09;;;2.90;31.43
39729;BME280;25402;42.004;23.088;2024-01-15T04:58:09;96919.97;;;1.79;30.46
39729;BME280;25402;42.004;23.088;2024-01-15T05:00:36;96930.38;;;0.87;30.68
39729;BME280;25402;42.004;23.088;2024-01-15T05:03:04;96925.56;;;-0.07;31.39
39729;BME280;25402;42.004;23.088;2024-01-15T05:05:31;96921.91;;;-0.88;32.31
39729;BME280;25402;42.004;23.088;2024-01-15T05:07:58;96935.22;;;-1.52;33.13
39729;BME280;25402;42.004;23.088;2024-01-15T05:10:25;96914.50;;;-2.12;33.84
39729;BME280;25402;42.004;23.088;2024-01-15T05:12:52;96929.06;;;-2.51;34.40
39729;BME280;25402;42.004;23.088;2024-01-15T05:15:20;96926.94;;;-3.03;35.27
39729;BME280;25402;42.004;23.088;2024-01-15T05:17:47;96928.84;;;-3.40;36.04
39729;BME280;25402;42.004;23.088;2024-01-15T05:20:14;96925.19;;;-3.74;36.73
39729;BME280;25402;42.004;23.088;2024-01-15T05:22:41;96907.06;;;-4.15;36.91
39729;BME280;25402;42.004;23.088;2024-01-15T05:25:08;96900.78;;;-4.51;37.85
39729;BME280;25402;42.004;23.088;2024-01-15T05:27:36;96908.00;;;-4.78;38.22
39729;BME280;25402;42.004;23.088;2024-01-15T05:30:03;96915.91;;;-5.04;39.34
39729;BME280;25402;42.004;23.088;2024-01-15T05:32:32;96902.81;;;-5.18;40.08
39729;BME280;25402;42.004;23.088;2024-01-15T05:34:59;96901.94;;;-5.31;40.31
39729;BME280;25402;42.004;23.088;2024-01-15T05:37:27;96898.34;;;-5.43;40.96
39729;BME280;25402;42.004;23.088;2024-01-15T05:39:54;96887.13;;;-5.59;41.34
39729;BME280;25402;42.004;23.088;2024-01-15T05:42:21;96898.31;;;-5.68;41.66
39729;BME280;25402;42.004;23.088;2024-01-15T05:44:48;96882.69;;;-5.71;42.28
39729;BME280;25402;42.004;23.088;2024-01-15T05:47:15;96882.66;;;-5.84;42.08
39729;BME280;25402;42.004;23.088;2024-01-15T05:49:47;96875.75;;;-5.99;42.63
39729;BME280;25402;42.004;23.088;2024-01-15T05:52:15;96873.09;;;-6.26;43.45
39729;BME280;25402;42.004;23.088;2024-01-15T05:54:44;96873.41;;;-6.30;43.77
39729;BME280;25402;42.004;23.088;2024-01-15T05:57:11;96869.59;;;-6.26;43.69
39729;BME280;25402;42.004;23.088;2024-01-15T05:59:38;96869.81;;;-6.29;44.46
39729;BME280;25402;42.004;23.088;2024-01-15T06:02:05;96863.50;;;-6.27;44.07
39729;BME280;25402;42.004;23.088;2024-01-15T06:04:32;96868.00;;;-4.98;57.52
39729;BME280;25402;42.004;23.088;2024-01-15T06:07:04;96861.75;;;-3.74;50.46
39729;BME280;25402;42.004;23.088;2024-01-15T06:09:31;96861.56;;;-3.95;49.02
39729;BME280;25402;42.004;23.088;2024-01-15T06:11:59;96861.94;;;-4.25;47.44
39729;BME280;25402;42.004;23.088;2024-01-15T06:14:26;96872.81;;;-4.53;45.57
39729;BME280;25402;42.004;23.088;2024-01-15T06:16:53;96858.16;;;-4.70;44.24
39729;BME280;25402;42.004;23.088;2024-01-15T06:19:21;96852.91;;;-4.95;42.82
39729;BME280;25402;42.004;23.088;2024-01-15T06:21:48;96858.31;;;-5.10;43.33
39729;BME280;25402;42.004;23.088;2024-01-15T06:24:17;96867.56;;;-5.17;43.26
39729;BME280;25402;42.004;23.088;2024-01-15T06:26:46;96854.63;;;-5.20;42.53
39729;BME280;25402;42.004;23.088;2024-01-15T06:29:13;96862.00;;;-5.25;42.75
39729;BME280;25402;42.004;23.088;2024-01-15T06:31:41;96864.00;;;-5.28;43.27
39729;BME280;25402;42.004;23.088;2024-01-15T06:34:08;96870.50;;;-5.34;43.51
39729;BME280;25402;42.004;23.088;2024-01-15T06:36:35;96849.84;;;-5.40;43.68
39729;BME280;25402;42.004;23.088;2024-01-15T06:39:02;96859.25;;;-5.36;44.14
39729;BME280;25402;42.004;23.088;2024-01-15T06:41:31;96872.00;;;-5.30;43.95
39729;BME280;25402;42.004;23.088;2024-01-15T06:43:58;96857.66;;;-5.51;44.09
39729;BME280;25402;42.004;23.088;2024-01-15T06:46:25;96862.47;;;-5.58;44.19
39729;BME280;25402;42.004;23.088;2024-01-15T06:48:53;96877.25;;;-5.55;44.28
39729;BME280;25402;42.004;23.088;2024-01-15T06:51:20;96881.22;;;-5.62;44.88
39729;BME280;25402;42.004;23.088;2024-01-15T06:53:47;96860.38;;;-5.53;43.94
39729;BME280;25402;42.004;23.088;2024-01-15T06:56:14;96850.22;;;-5.72;43.92
39729;BME280;25402;42.004;23.088;2024-01-15T06:58:43;96858.72;;;-5.81;44.42
39729;BME280;25402;42.004;23.088;2024-01-15T07:01:10;96860.34;;;-5.65;44.39
39729;BME280;25402;42.004;23.088;2024-01-15T07:03:38;96865.84;;;-5.69;44.86
39729;BME280;25402;42.004;23.088;2024-01-15T07:06:05;96858.34;;;-5.62;44.33
39729;BME280;25402;42.004;23.088;2024-01-15T07:08:32;96862.97;;;-5.65;44.83
39729;BME280;25402;42.004;23.088;2024-01-15T07:11:03;96863.72;;;-5.51;44.63
39729;BME280;25402;42.004;23.088;2024-01-15T07:13:31;96873.38;;;-5.37;44.72
39729;BME280;25402;42.004;23.088;2024-01-15T07:16:00;96870.66;;;-5.23;44.46
39729;BME280;25402;42.004;23.088;2024-01-15T07:18:27;96862.53;;;-5.20;43.91
39729;BME280;25402;42.004;23.088;2024-01-15T07:20:54;96859.56;;;-5.03;44.09
39729;BME280;25402;42.004;23.088;2024-01-15T07:23:21;96853.44;;;-4.90;44.11
39729;BME280;25402;42.004;23.088;2024-01-15T07:25:49;96867.38;;;-4.76;44.06
39729;BME280;25402;42.004;23.088;2024-01-15T07:28:16;96854.16;;;-4.63;43.54
39729;BME280;25402;42.004;23.088;2024-01-15T07:30:43;96852.13;;;-4.59;43.82
39729;BME280;25402;42.004;23.088;2024-01-15T07:33:13;96840.91;;;-4.50;43.22
39729;BME280;25402;42.004;23.088;2024-01-15T07:35:41;96842.28;;;-4.45;43.13
39729;BME280;25402;42.004;23.088;2024-01-15T07:38:08;96828.88;;;-4.42;43.43
39729;BME280;25402;42.004;23.088;2024-01-15T07:40:37;96841.84;;;-4.15;43.04
39729;BME280;25402;42.004;23.088;2024-01-15T07:43:04;96847.31;;;-4.05;43.31
39729;BME280;25402;42.004;23.088;2024-01-15T07:45:31;96850.47;;;-4.00;42.97
39729;BME280;25402;42.004;23.088;2024-01-15T07:47:58;96847.13;;;-3.91;42.85
39729;BME280;25402;42.004;23.088;2024-01-15T07:50:27;96853.72;;;-3.73;42.66
39729;BME280;25402;42.004;23.088;2024-01-15T07:52:54;96865.97;;;-3.48;42.25
39729;BME280;25402;42.004;23.088;2024-01-15T07:55:21;96869.69;;;-3.39;42.29
39729;BME280;25402;42.004;23.088;2024-01-15T07:57:48;96843.16;;;-3.27;41.65
39729;BME280;25402;42.004;23.088;2024-01-15T08:00:16;96824.16;;;-3.32;41.61
39729;BME280;25402;42.004;23.088;2024-01-15T08:02:43;96844.50;;;-2.99;41.49
39729;BME280;25402;42.004;23.088;2024-01-15T08:05:10;96860.03;;;-3.05;41.55
39729;BME280;25402;42.004;23.088;2024-01-15T08:07:38;96859.25;;;-2.83;41.62
39729;BME280;25402;42.004;23.088;2024-01-15T08:10:06;96849.81;;;-2.65;41.44
39729;BME280;25402;42.004;23.088;2024-01-15T08:12:33;96850.59;;;-2.52;41.49
39729;BME280;25402;42.004;23.088;2024-01-15T08:15:04;96832.25;;;-2.66;40.89
39729;BME280;25402;42.004;23.088;2024-01-15T08:17:31;96867.06;;;-2.48;41.21
39729;BME280;25402;42.004;23.088;2024-01-15T08:19:58;96860.81;;;-2.36;40.71
39729;BME280;25402;42.004;23.088;2024-01-15T08:22:26;96861.41;;;-2.44;40.80
39729;BME280;25402;42.004;23.088;2024-01-15T08:24:55;96856.84;;;-2.42;40.57
39729;BME280;25402;42.004;23.088;2024-01-15T08:27:22;96858.56;;;-2.52;40.60
39729;BME280;25402;42.004;23.088;2024-01-15T08:29:49;96847.81;;;-2.39;40.74
39729;BME280;25402;42.004;23.088;2024-01-15T08:32:17;96854.28;;;-2.32;40.52
39729;BME280;25402;42.004;23.088;2024-01-15T08:34:44;96859.25;;;-2.39;40.78
39729;BME280;25402;42.004;23.088;2024-01-15T08:37:13;96839.63;;;-2.47;41.22
39729;BME280;25402;42.004;23.088;2024-01-15T08:39:40;96862.47;;;-2.35;41.34
39729;BME280;25402;42.004;23.088;2024-01-15T08:42:08;96863.84;;;-2.41;41.20
39729;BME280;25402;42.004;23.088;2024-01-15T08:44:36;96860.22;;;-2.40;41.18
39729;BME280;25402;42.004;23.088;2024-01-15T08:47:05;96860.91;;;-2.27;41.28
39729;BME280;25402;42.004;23.088;2024-01-15T08:49:32;96852.00;;;-2.26;41.49
39729;BME280;25402;42.004;23.088;2024-01-15T08:51:59;96858.75;;;-2.22;41.70
39729;BME280;25402;42.004;23.088;2024-01-15T08:54:26;96850.28;;;-2.16;41.52
39729;BME280;25402;42.004;23.088;2024-01-15T08:56:54;96860.41;;;-2.09;41.53
39729;BME280;25402;42.004;23.088;2024-01-15T08:59:22;96849.94;;;-2.11;41.60
39729;BME280;25402;42.004;23.088;2024-01-15T09:01:51;96847.16;;;-2.09;41.46
39729;BME280;25402;42.004;23.088;2024-01-15T09:04:18;96836.09;;;-2.14;41.37
39729;BME280;25402;42.004;23.088;2024-01-15T09:06:45;96835.59;;;-2.08;41.67
39729;BME280;25402;42.004;23.088;2024-01-15T09:09:13;96825.47;;;-2.14;41.55
39729;BME280;25402;42.004;23.088;2024-01-15T09:11:40;96821.81;;;-2.02;41.56
39729;BME280;25402;42.004;23.088;2024-01-15T09:14:08;96815.56;;;-2.01;41.88
39729;BME280;25402;42.004;23.088;2024-01-15T09:16:36;96799.66;;;-2.01;41.68
39729;BME280;25402;42.004;23.088;2024-01-15T09:19:03;96777.19;;;-2.18;41.57
39729;BME280;25402;42.004;23.088;2024-01-15T09:21:30;96805.19;;;-1.93;41.63
39729;BME280;25402;42.004;23.088;2024-01-15T09:23:57;96778.25;;;-2.09;41.58
39729;BME280;25402;42.004;23.088;2024-01-15T09:26:24;96788.69;;;-1.97;41.85
39729;BME280;25402;42.004;23.088;2024-01-15T09:28:52;96791.22;;;-1.95;41.63
39729;BME280;25402;42.004;23.088;2024-01-15T09:31:19;96774.66;;;-1.88;41.81
39729;BME280;25402;42.004;23.088;2024-01-15T09:33:48;96771.44;;;-1.91;41.76
39729;BME280;25402;42.004;23.088;2024-01-15T09:36:17;96763.31;;;-1.78;41.43
39729;BME280;25402;42.004;23.088;2024-01-15T09:38:45;96758.59;;;-1.75;41.65
39729;BME280;25402;42.004;23.088;2024-01-15T09:41:12;96746.47;;;-1.68;41.28
39729;BME280;25402;42.004;23.088;2024-01-15T09:43:39;96724.56;;;-1.70;41.33
39729;BME280;25402;42.004;23.088;2024-01-15T09:46:08;96738.03;;;-1.62;40.91
39729;BME280;25402;42.004;23.088;2024-01-15T09:48:35;96714.88;;;-1.60;40.99
39729;BME280;25402;42.004;23.088;2024-01-15T09:51:06;96696.44;;;-1.61;41.06
39729;BME280;25402;42.004;23.088;2024-01-15T09:53:35;96719.13;;;-1.48;41.00
39729;BME280;25402;42.004;23.088;2024-01-15T09:56:04;96724.22;;;-1.35;41.06
39729;BME280;25402;42.004;23.088;2024-01-15T09:58:32;96712.13;;;-1.28;41.06
39729;BME280;25402;42.004;23.088;2024-01-15T10:01:01;96708.63;;;-1.28;40.93
39729;BME280;25402;42.004;23.088;2024-01-15T10:03:29;96701.63;;;-1.29;41.06
39729;BME280;25402;42.004;23.088;2024-01-15T10:05:59;96710.47;;;-1.19;40.86
39729;BME280;25402;42.004;23.088;2024-01-15T10:08:28;96716.50;;;-1.17;40.96
39729;BME280;25402;42.004;23.088;2024-01-15T10:10:55;96693.31;;;-1.15;40.57
39729;BME280;25402;42.004;23.088;2024-01-15T10:13:22;96705.16;;;-1.19;40.71
39729;BME280;25402;42.004;23.088;2024-01-15T10:15:50;96691.19;;;-1.21;41.02
39729;BME280;25402;42.004;23.088;2024-01-15T10:18:17;96690.25;;;-1.11;40.60
39729;BME280;25402;42.004;23.088;2024-01-15T10:20:44;96682.69;;;-1.15;40.98
39729;BME280;25402;42.004;23.088;2024-01-15T10:23:12;96668.59;;;-1.06;40.76
39729;BME280;25402;42.004;23.088;2024-01-15T10:25:41;96668.22;;;-0.92;41.05
39729;BME280;25402;42.004;23.088;2024-01-15T10:28:08;96670.03;;;-0.92;40.74
39729;BME280;25402;42.004;23.088;2024-01-15T10:30:36;96653.25;;;-0.93;41.16
39729;BME280;25402;42.004;23.088;2024-01-15T10:33:04;96669.63;;;-0.88;40.87
39729;BME280;25402;42.004;23.088;2024-01-15T10:35:32;96659.47;;;-0.73;41.04
39729;BME280;25402;42.004;23.088;2024-01-15T10:38:00;96646.50;;;-0.66;41.11
39729;BME280;25402;42.004;23.088;2024-01-15T10:40:27;96619.91;;;-0.76;41.24
39729;BME280;25402;42.004;23.088;2024-01-15T10:42:56;96634.75;;;-0.54;41.28
39729;BME280;25402;42.004;23.088;2024-01-15T10:45:24;96631.69;;;-0.50;42.06
39729;BME280;25402;42.004;23.088;2024-01-15T10:47:54;96631.69;;;-0.40;41.48
39729;BME280;25402;42.004;23.088;2024-01-15T10:50:43;96616.28;;;-0.27;40.79
39729;BME280;25402;42.004;23.088;2024-01-15T10:53:17;96624.97;;;-0.25;40.65
39729;BME280;25402;42.004;23.088;2024-01-15T10:55:46;96615.50;;;-0.18;40.46
39729;BME280;25402;42.004;23.088;2024-01-15T10:58:16;96608.75;;;-0.22;40.60
39729;BME280;25402;42.004;23.088;2024-01-15T11:00:48;96603.88;;;-0.17;40.41
39729;BME280;25402;42.004;23.088;2024-01-15T11:03:21;96510.47;;;-0.70;40.64
39729;BME280;25402;42.004;23.088;2024-01-15T11:05:49;96609.03;;;-0.06;40.24
39729;BME280;25402;42.004;23.088;2024-01-15T11:08:17;96613.38;;;-0.04;40.16
39729;BME280;25402;42.004;23.088;2024-01-15T11:10:46;96603.72;;;-0.06;40.07
39729;BME280;25402;42.004;23.088;2024-01-15T11:13:19;96581.59;;;-0.06;40.33
39729;BME280;25402;42.004;23.088;2024-01-15T11:16:00;96583.97;;;-0.13;40.23
39729;BME280;25402;42.004;23.088;2024-01-15T11:18:28;96578.81;;;-0.14;40.03
39729;BME280;25402;42.004;23.088;2024-01-15T11:21:20;96558.94;;;-0.00;40.35
39729;BME280;25402;42.004;23.088;2024-01-15T11:23:49;96546.31;;;0.02;40.17
39729;BME280;25402;42.004;23.088;2024-01-15T11:26:31;96560.34;;;-0.16;40.79
39729;BME280;25402;42.004;23.088;2024-01-15T11:29:01;96550.84;;;-0.18;40.94
39729;BME280;25402;42.004;23.088;2024-01-15T11:31:29;96545.78;;;-0.12;40.92
39729;BME280;25402;42.004;23.088;2024-01-15T11:33:57;96542.38;;;0.06;40.82
39729;BME280;25402;42.004;23.088;2024-01-15T11:39:41;96510.13;;;0.28;40.56
39729;BME280;25402;42.004;23.088;2024-01-15T11:42:10;96520.50;;;0.21;41.04
39729;BME280;25402;42.004;23.088;2024-01-15T11:44:40;96520.41;;;0.41;40.60
39729;BME280;25402;42.004;23.088;2024-01-15T11:47:08;96494.44;;;0.25;40.92
39729;BME280;25402;42.004;23.088;2024-01-15T11:49:59;96497.59;;;0.38;40.62
39729;BME280;25402;42.004;23.088;2024-01-15T11:52:32;96509.22;;;0.64;40.72
39729;BME280;25402;42.004;23.088;2024-01-15T11:55:02;96506.34;;;0.76;40.53
39729;BME280;25402;42.004;23.088;2024-01-15T11:57:40;96498.53;;;0.92;40.35
39729;BME280;25402;42.004;23.088;2024-01-15T12:00:11;96491.31;;;1.02;39.81
39729;BME280;25402;42.004;23.088;2024-01-15T12:02:40;96490.56;;;1.10;39.65
39729;BME280;25402;42.004;23.088;2024-01-15T12:05:08;96482.56;;;1.10;39.56
39729;BME280;25402;42.004;23.088;2024-01-15T12:07:35;96484.25;;;0.93;39.97
39729;BME280;25402;42.004;23.088;2024-01-15T12:10:08;96449.78;;;0.91;39.62
39729;BME280;25402;42.004;23.088;2024-01-15T12:12:43;96469.44;;;1.34;39.85
39729;BME280;25402;42.004;23.088;2024-01-15T12:15:15;96463.13;;;1.35;39.20
39729;BME280;25402;42.004;23.088;2024-01-15T12:17:43;96451.06;;;1.49;39.28
39729;BME280;25402;42.004;23.088;2024-01-15T12:20:11;96447.38;;;1.67;38.86
39729;BME280;25402;42.004;23.088;2024-01-15T12:22:39;96440.97;;;1.78;38.75
39729;BME280;25402;42.004;23.088;2024-01-15T12:25:06;96423.50;;;1.84;38.46
39729;BME280;25402;42.004;23.088;2024-01-15T12:27:33;96432.44;;;2.00;38.11
39729;BME280;25402;42.004;23.088;2024-01-15T12:30:01;96432.81;;;2.14;37.78
39729;BME280;25402;42.004;23.088;2024-01-15T12:32:29;96414.50;;;2.19;37.36
39729;BME280;25402;42.004;23.088;2024-01-15T12:34:56;96422.47;;;2.11;37.55
39729;BME280;25402;42.004;23.088;2024-01-15T12:37:24;96416.19;;;2.20;37.31
39729;BME280;25402;42.004;23.088;2024-01-15T12:39:52;96407.56;;;2.34;36.08
39729;BME280;25402;42.004;23.088;2024-01-15T12:42:21;96415.28;;;2.61;35.35
39729;BME280;25402;42.004;23.088;2024-01-15T12:44:48;96408.31;;;2.77;35.02
39729;BME280;25402;42.004;23.088;2024-01-15T12:47:15;96408.50;;;2.83;34.44
39729;BME280;25402;42.004;23.088;2024-01-15T12:49:48;96406.00;;;2.82;34.55
39729;BME280;25402;42.004;23.088;2024-01-15T12:52:19;96402.34;;;2.99;34.31
39729;BME280;25402;42.004;23.088;2024-01-15T12:54:47;96405.81;;;2.99;33.59
39729;BME280;25402;42.004;23.088;2024-01-15T12:57:20;96406.50;;;3.18;36.20
39729;BME280;25402;42.004;23.088;2024-01-15T12:59:47;96413.84;;;3.24;33.02